createdAt,value
2018-07-12T00:00:16.790Z,21.68
2018-07-12T00:01:16.797Z,21.68
2018-07-12T00:02:16.773Z,21.68
2018-07-12T00:03:16.905Z,21.67
2018-07-12T00:04:16.804Z,21.67
2018-07-12T00:05:16.746Z,21.67
2018-07-12T00:06:16.792Z,21.67
2018-07-12T00:07:16.696Z,21.67
2018-07-12T00:08:17.005Z,21.67
2018-07-12T00:09:16.883Z,21.67
2018-07-12T00:10:16.701Z,21.67
2018-07-12T00:11:16.648Z,21.67
2018-07-12T00:12:16.664Z,21.66
2018-07-12T00:13:16.837Z,21.67
2018-07-12T00:14:16.821Z,21.67
2018-07-12T00:15:16.755Z,21.67
2018-07-12T00:16:16.570Z,21.67
2018-07-12T00:17:16.666Z,21.67
2018-07-12T00:18:16.732Z,21.66
2018-07-12T00:19:16.790Z,21.66
2018-07-12T00:20:16.677Z,21.66
2018-07-12T00:21:16.749Z,21.66
2018-07-12T00:22:16.784Z,21.66
2018-07-12T00:23:16.773Z,21.66
2018-07-12T00:24:16.773Z,21.66
2018-07-12T00:25:16.633Z,21.67
2018-07-12T00:26:16.836Z,21.66
2018-07-12T00:27:16.824Z,21.66
2018-07-12T00:28:16.856Z,21.66
2018-07-12T00:29:16.771Z,21.66
2018-07-12T00:30:16.742Z,21.65
2018-07-12T00:31:16.722Z,21.66
2018-07-12T00:32:16.774Z,21.66
2018-07-12T00:33:16.789Z,21.65
2018-07-12T00:34:16.646Z,21.66
2018-07-12T00:35:16.761Z,21.66
2018-07-12T00:36:16.807Z,21.65
2018-07-12T00:37:17.018Z,21.65
2018-07-12T00:38:16.957Z,21.65
2018-07-12T00:39:16.933Z,21.65
2018-07-12T00:40:16.685Z,21.65
2018-07-12T00:41:16.662Z,21.65
2018-07-12T00:42:16.852Z,21.65
2018-07-12T00:43:16.847Z,21.65
2018-07-12T00:44:16.760Z,21.65
2018-07-12T00:45:16.855Z,21.65
2018-07-12T00:46:16.665Z,21.65
2018-07-12T00:47:16.641Z,21.65
2018-07-12T00:48:16.694Z,21.65
2018-07-12T00:49:16.796Z,21.65
2018-07-12T00:50:16.842Z,21.65
2018-07-12T00:51:16.793Z,21.65
2018-07-12T00:52:16.840Z,21.65
2018-07-12T00:53:16.863Z,21.65
2018-07-12T00:54:16.611Z,21.65
2018-07-12T00:55:16.863Z,21.65
2018-07-12T00:56:16.721Z,21.65
2018-07-12T00:57:16.602Z,21.65
2018-07-12T00:58:16.647Z,21.65
2018-07-12T00:59:16.767Z,21.65
2018-07-12T01:00:16.773Z,21.65
2018-07-12T01:01:16.863Z,21.65
2018-07-12T01:02:16.782Z,21.65
2018-07-12T01:03:27.007Z,21.65
2018-07-12T01:04:16.786Z,21.65
2018-07-12T01:05:16.858Z,21.65
2018-07-12T01:06:16.800Z,21.65
2018-07-12T01:07:16.870Z,21.65
2018-07-12T01:08:16.764Z,21.65
2018-07-12T01:09:16.918Z,21.64
2018-07-12T01:10:16.636Z,21.65
2018-07-12T01:11:16.813Z,21.65
2018-07-12T01:12:16.587Z,21.65
2018-07-12T01:13:16.571Z,21.64
2018-07-12T01:14:16.716Z,21.64
2018-07-12T01:15:16.762Z,21.64
2018-07-12T01:16:16.753Z,21.64
2018-07-12T01:17:16.627Z,21.64
2018-07-12T01:18:16.734Z,21.64
2018-07-12T01:19:16.858Z,21.64
2018-07-12T01:20:16.801Z,21.65
2018-07-12T01:21:16.828Z,21.64
2018-07-12T01:22:16.832Z,21.64
2018-07-12T01:23:16.665Z,21.64
2018-07-12T01:24:16.801Z,21.64
2018-07-12T01:25:16.783Z,21.64
2018-07-12T01:26:16.646Z,21.64
2018-07-12T01:27:16.897Z,21.63
2018-07-12T01:28:16.879Z,21.64
2018-07-12T01:29:16.674Z,21.64
2018-07-12T01:30:16.649Z,21.64
2018-07-12T01:31:16.898Z,21.64
2018-07-12T01:32:16.743Z,21.64
2018-07-12T01:33:16.784Z,21.63
2018-07-12T01:34:16.785Z,21.64
2018-07-12T01:35:16.721Z,21.64
2018-07-12T01:36:16.826Z,21.63
2018-07-12T01:37:16.696Z,21.63
2018-07-12T01:38:16.830Z,21.63
2018-07-12T01:39:16.597Z,21.63
2018-07-12T01:40:16.762Z,21.63
2018-07-12T01:41:16.650Z,21.63
2018-07-12T01:42:16.707Z,21.63
2018-07-12T01:43:16.819Z,21.63
2018-07-12T01:44:16.875Z,21.63
2018-07-12T01:45:16.943Z,21.63
2018-07-12T01:46:16.711Z,21.63
2018-07-12T01:47:16.692Z,21.63
2018-07-12T01:48:16.614Z,21.63
2018-07-12T01:49:16.676Z,21.63
2018-07-12T01:50:16.783Z,21.63
2018-07-12T01:51:16.763Z,21.62
2018-07-12T01:52:16.784Z,21.63
2018-07-12T01:53:16.760Z,21.63
2018-07-12T01:54:16.703Z,21.62
2018-07-12T01:55:16.741Z,21.62
2018-07-12T01:56:16.882Z,21.62
2018-07-12T01:57:16.598Z,21.62
2018-07-12T01:58:16.841Z,21.62
2018-07-12T01:59:16.870Z,21.62
2018-07-12T02:00:16.773Z,21.62
2018-07-12T02:01:16.937Z,21.62
2018-07-12T02:02:17.045Z,21.62
2018-07-12T02:03:16.785Z,21.62
2018-07-12T02:04:16.752Z,21.62
2018-07-12T02:05:16.681Z,21.62
2018-07-12T02:06:16.553Z,21.62
2018-07-12T02:07:16.866Z,21.62
2018-07-12T02:08:16.787Z,21.62
2018-07-12T02:09:16.698Z,21.62
2018-07-12T02:10:17.000Z,21.62
2018-07-12T02:11:16.815Z,21.62
2018-07-12T02:12:16.836Z,21.62
2018-07-12T02:13:16.847Z,21.61
2018-07-12T02:14:16.811Z,21.62
2018-07-12T02:15:16.781Z,21.61
2018-07-12T02:16:16.844Z,21.62
2018-07-12T02:17:16.838Z,21.61
2018-07-12T02:18:16.710Z,21.61
2018-07-12T02:19:16.734Z,21.62
2018-07-12T02:20:16.798Z,21.61
2018-07-12T02:21:16.680Z,21.61
2018-07-12T02:22:16.867Z,21.61
2018-07-12T02:23:16.686Z,21.6
2018-07-12T02:24:16.673Z,21.61
2018-07-12T02:25:16.802Z,21.61
2018-07-12T02:26:16.815Z,21.61
2018-07-12T02:27:16.725Z,21.61
2018-07-12T02:28:16.822Z,21.61
2018-07-12T02:29:16.797Z,21.61
2018-07-12T02:30:16.823Z,21.61
2018-07-12T02:31:17.310Z,21.61
2018-07-12T02:32:17.710Z,21.6
2018-07-12T02:33:17.293Z,21.61
2018-07-12T02:34:17.503Z,21.61
2018-07-12T02:35:17.635Z,21.61
2018-07-12T02:36:17.304Z,21.61
2018-07-12T02:37:17.397Z,21.61
2018-07-12T02:38:17.463Z,21.61
2018-07-12T02:39:17.467Z,21.6
2018-07-12T02:40:17.430Z,21.6
2018-07-12T02:41:17.363Z,21.6
2018-07-12T02:42:17.215Z,21.61
2018-07-12T02:43:17.329Z,21.6
2018-07-12T02:44:17.346Z,21.61
2018-07-12T02:45:17.327Z,21.6
2018-07-12T02:46:17.318Z,21.6
2018-07-12T02:47:17.373Z,21.6
2018-07-12T02:48:17.310Z,21.6
2018-07-12T02:49:17.417Z,21.6
2018-07-12T02:50:17.478Z,21.6
2018-07-12T02:51:17.168Z,21.6
2018-07-12T02:52:17.296Z,21.6
2018-07-12T02:53:17.481Z,21.6
2018-07-12T02:54:17.372Z,21.6
2018-07-12T02:55:17.437Z,21.6
2018-07-12T02:56:17.241Z,21.6
2018-07-12T02:57:17.553Z,21.6
2018-07-12T02:58:17.449Z,21.6
2018-07-12T02:59:17.301Z,21.6
2018-07-12T03:00:17.221Z,21.6
2018-07-12T03:01:17.450Z,21.6
2018-07-12T03:02:17.496Z,21.6
2018-07-12T03:03:17.584Z,21.6
2018-07-12T03:04:17.319Z,21.6
2018-07-12T03:05:17.323Z,21.6
2018-07-12T03:06:17.545Z,21.6
2018-07-12T03:07:17.327Z,21.6
2018-07-12T03:08:17.458Z,21.6
2018-07-12T03:09:17.297Z,21.6
2018-07-12T03:10:17.491Z,21.6
2018-07-12T03:11:17.539Z,21.6
2018-07-12T03:12:17.861Z,21.6
2018-07-12T03:13:17.417Z,21.6
2018-07-12T03:14:17.711Z,21.6
2018-07-12T03:15:17.238Z,21.6
2018-07-12T03:16:17.447Z,21.6
2018-07-12T03:17:17.500Z,21.6
2018-07-12T03:18:17.235Z,21.6
2018-07-12T03:19:17.487Z,21.6
2018-07-12T03:20:17.413Z,21.6
2018-07-12T03:21:17.464Z,21.6
2018-07-12T03:22:17.549Z,21.6
2018-07-12T03:23:17.553Z,21.6
2018-07-12T03:24:17.501Z,21.59
2018-07-12T03:25:17.475Z,21.6
2018-07-12T03:26:17.403Z,21.6
2018-07-12T03:27:17.277Z,21.59
2018-07-12T03:28:17.394Z,21.6
2018-07-12T03:29:17.323Z,21.6
2018-07-12T03:30:17.462Z,21.6
2018-07-12T03:31:17.221Z,21.6
2018-07-12T03:32:17.585Z,21.59
2018-07-12T03:33:17.409Z,21.59
2018-07-12T03:34:18.639Z,21.6
2018-07-12T03:35:17.462Z,21.59
2018-07-12T03:36:17.474Z,21.59
2018-07-12T03:37:17.557Z,21.59
2018-07-12T03:38:17.372Z,21.59
2018-07-12T03:39:17.046Z,21.59
2018-07-12T03:40:18.971Z,21.59
2018-07-12T03:41:17.595Z,21.59
2018-07-12T03:42:17.086Z,21.59
2018-07-12T03:43:17.087Z,21.59
2018-07-12T03:44:17.554Z,21.59
2018-07-12T03:45:17.372Z,21.59
2018-07-12T03:46:17.474Z,21.59
2018-07-12T03:47:17.207Z,21.59
2018-07-12T03:48:17.986Z,21.58
2018-07-12T03:49:17.301Z,21.59
2018-07-12T03:50:17.021Z,21.59
2018-07-12T03:51:17.442Z,21.59
2018-07-12T03:52:17.438Z,21.59
2018-07-12T03:53:17.379Z,21.58
2018-07-12T03:54:16.566Z,21.58
2018-07-12T03:55:17.394Z,21.59
2018-07-12T03:56:17.461Z,21.59
2018-07-12T03:57:17.233Z,21.59
2018-07-12T03:58:18.745Z,21.59
2018-07-12T03:59:17.538Z,21.59
2018-07-12T04:00:17.501Z,21.58
2018-07-12T04:01:17.142Z,21.59
2018-07-12T04:02:17.391Z,21.58
2018-07-12T04:03:16.555Z,21.59
2018-07-12T04:04:17.532Z,21.59
2018-07-12T04:05:17.508Z,21.58
2018-07-12T04:06:17.522Z,21.58
2018-07-12T04:07:17.132Z,21.58
2018-07-12T04:08:17.279Z,21.58
2018-07-12T04:09:17.516Z,21.58
2018-07-12T04:10:17.189Z,21.58
2018-07-12T04:11:17.508Z,21.58
2018-07-12T04:12:17.001Z,21.58
2018-07-12T04:13:17.444Z,21.58
2018-07-12T04:14:17.077Z,21.58
2018-07-12T04:15:17.252Z,21.58
2018-07-12T04:16:18.271Z,21.58
2018-07-12T04:17:18.863Z,21.58
2018-07-12T04:18:17.044Z,21.57
2018-07-12T04:19:17.398Z,21.58
2018-07-12T04:20:17.341Z,21.58
2018-07-12T04:21:17.588Z,21.57
2018-07-12T04:22:18.801Z,21.58
2018-07-12T04:23:16.665Z,21.58
2018-07-12T04:24:17.460Z,21.58
2018-07-12T04:25:17.203Z,21.58
2018-07-12T04:26:18.243Z,21.57
2018-07-12T04:27:17.542Z,21.57
2018-07-12T04:28:17.531Z,21.57
2018-07-12T04:29:17.681Z,21.57
2018-07-12T04:30:16.533Z,21.57
2018-07-12T04:31:16.927Z,21.57
2018-07-12T04:32:16.731Z,21.57
2018-07-12T04:33:16.686Z,21.57
2018-07-12T04:34:17.614Z,21.57
2018-07-12T04:35:16.806Z,21.57
2018-07-12T04:36:16.749Z,21.57
2018-07-12T04:37:16.960Z,21.57
2018-07-12T04:38:16.710Z,21.57
2018-07-12T04:39:16.797Z,21.58
2018-07-12T04:40:16.608Z,21.57
2018-07-12T04:41:16.580Z,21.57
2018-07-12T04:42:16.640Z,21.57
2018-07-12T04:43:16.698Z,21.57
2018-07-12T04:44:16.864Z,21.57
2018-07-12T04:45:16.859Z,21.58
2018-07-12T04:46:16.800Z,21.58
2018-07-12T04:47:16.691Z,21.57
2018-07-12T04:48:16.557Z,21.58
2018-07-12T04:49:16.813Z,21.57
2018-07-12T04:50:16.752Z,21.57
2018-07-12T04:51:17.276Z,21.57
2018-07-12T04:52:16.711Z,21.57
2018-07-12T04:53:16.930Z,21.57
2018-07-12T04:54:16.592Z,21.57
2018-07-12T04:55:16.783Z,21.57
2018-07-12T04:56:16.768Z,21.57
2018-07-12T04:57:16.599Z,21.57
2018-07-12T04:58:17.585Z,21.57
2018-07-12T04:59:16.686Z,21.58
2018-07-12T05:00:16.814Z,21.57
2018-07-12T05:01:16.727Z,21.58
2018-07-12T05:02:16.842Z,21.57
2018-07-12T05:03:16.935Z,21.58
2018-07-12T05:04:16.692Z,21.57
2018-07-12T05:05:16.764Z,21.57
2018-07-12T05:06:16.571Z,21.57
2018-07-12T05:07:16.677Z,21.58
2018-07-12T05:08:16.737Z,21.58
2018-07-12T05:09:16.712Z,21.58
2018-07-12T05:10:16.679Z,21.58
2018-07-12T05:11:16.610Z,21.58
2018-07-12T05:12:16.716Z,21.58
2018-07-12T05:13:16.543Z,21.58
2018-07-12T05:14:16.728Z,21.57
2018-07-12T05:15:16.587Z,21.57
2018-07-12T05:16:17.409Z,21.58
2018-07-12T05:17:16.631Z,21.57
2018-07-12T05:18:16.589Z,21.57
2018-07-12T05:19:16.822Z,21.58
2018-07-12T05:20:16.816Z,21.57
2018-07-12T05:21:16.659Z,21.58
2018-07-12T05:22:16.686Z,21.58
2018-07-12T05:23:16.662Z,21.58
2018-07-12T05:24:16.581Z,21.58
2018-07-12T05:25:16.728Z,21.58
2018-07-12T05:26:16.743Z,21.58
2018-07-12T05:27:16.652Z,21.58
2018-07-12T05:28:17.313Z,21.58
2018-07-12T05:29:16.681Z,21.57
2018-07-12T05:30:16.709Z,21.57
2018-07-12T05:31:19.282Z,21.58
2018-07-12T05:32:17.614Z,21.58
2018-07-12T05:33:17.310Z,21.58
2018-07-12T05:34:16.986Z,21.58
2018-07-12T05:35:17.032Z,21.57
2018-07-12T05:36:16.991Z,21.57
2018-07-12T05:37:17.004Z,21.58
2018-07-12T05:38:17.010Z,21.57
2018-07-12T05:39:17.707Z,21.58
2018-07-12T05:40:17.061Z,21.58
2018-07-12T05:41:16.938Z,21.58
2018-07-12T05:42:17.199Z,21.58
2018-07-12T05:43:17.270Z,21.59
2018-07-12T05:44:17.047Z,21.58
2018-07-12T05:45:19.497Z,21.58
2018-07-12T05:46:17.041Z,21.58
2018-07-12T05:47:17.017Z,21.58
2018-07-12T05:48:16.936Z,21.57
2018-07-12T05:49:17.039Z,21.58
2018-07-12T05:50:16.929Z,21.58
2018-07-12T05:51:17.197Z,21.58
2018-07-12T05:52:17.619Z,21.58
2018-07-12T05:53:17.265Z,21.58
2018-07-12T05:54:19.593Z,21.58
2018-07-12T05:55:16.989Z,21.58
2018-07-12T05:56:17.055Z,21.58
2018-07-12T05:57:19.185Z,21.58
2018-07-12T05:58:16.977Z,21.58
2018-07-12T05:59:17.296Z,21.58
2018-07-12T06:00:17.038Z,21.58
2018-07-12T06:01:17.292Z,21.58
2018-07-12T06:02:19.181Z,21.58
2018-07-12T06:03:16.952Z,21.58
2018-07-12T06:04:19.650Z,21.58
2018-07-12T06:05:17.042Z,21.58
2018-07-12T06:06:16.996Z,21.58
2018-07-12T06:07:16.992Z,21.57
2018-07-12T06:08:17.034Z,21.57
2018-07-12T06:09:16.868Z,21.57
2018-07-12T06:10:17.063Z,21.58
2018-07-12T06:11:17.004Z,21.57
2018-07-12T06:12:16.555Z,21.57
2018-07-12T06:13:17.615Z,21.58
2018-07-12T06:14:17.267Z,21.57
2018-07-12T06:15:17.244Z,21.58
2018-07-12T06:16:17.288Z,21.58
2018-07-12T06:17:17.085Z,21.58
2018-07-12T06:18:16.879Z,21.57
2018-07-12T06:19:16.997Z,21.57
2018-07-12T06:20:17.028Z,21.57
2018-07-12T06:21:17.048Z,21.57
2018-07-12T06:22:17.125Z,21.57
2018-07-12T06:23:17.053Z,21.58
2018-07-12T06:24:17.086Z,21.58
2018-07-12T06:25:17.076Z,21.57
2018-07-12T06:26:17.262Z,21.58
2018-07-12T06:27:17.003Z,21.58
2018-07-12T06:28:17.006Z,21.58
2018-07-12T06:29:17.073Z,21.58
2018-07-12T06:30:16.850Z,21.57
2018-07-12T06:31:16.641Z,21.57
2018-07-12T06:32:16.597Z,21.57
2018-07-12T06:33:16.795Z,21.57
2018-07-12T06:34:16.592Z,21.57
2018-07-12T06:35:16.800Z,21.58
2018-07-12T06:36:16.584Z,21.58
2018-07-12T06:37:17.618Z,21.58
2018-07-12T06:38:16.593Z,21.57
2018-07-12T06:39:16.648Z,21.57
2018-07-12T06:40:16.784Z,21.57
2018-07-12T06:41:16.576Z,21.57
2018-07-12T06:42:16.679Z,21.58
2018-07-12T06:43:16.630Z,21.57
2018-07-12T06:44:16.843Z,21.57
2018-07-12T06:45:16.560Z,21.58
2018-07-12T06:46:16.778Z,21.58
2018-07-12T06:47:16.645Z,21.57
2018-07-12T06:48:16.697Z,21.57
2018-07-12T06:49:16.544Z,21.58
2018-07-12T06:50:16.845Z,21.58
2018-07-12T06:51:16.782Z,21.57
2018-07-12T06:52:16.750Z,21.58
2018-07-12T06:53:16.743Z,21.57
2018-07-12T06:54:17.462Z,21.57
2018-07-12T06:55:16.617Z,21.58
2018-07-12T06:56:16.765Z,21.57
2018-07-12T06:57:16.750Z,21.57
2018-07-12T06:58:32.888Z,21.58
2018-07-12T06:59:16.767Z,21.57
2018-07-12T07:00:16.751Z,21.57
2018-07-12T07:01:16.760Z,21.58
2018-07-12T07:02:16.603Z,21.57
2018-07-12T07:03:16.615Z,21.58
2018-07-12T07:04:16.588Z,21.57
2018-07-12T07:05:16.807Z,21.57
2018-07-12T07:06:16.632Z,21.57
2018-07-12T07:07:16.680Z,21.57
2018-07-12T07:08:16.702Z,21.57
2018-07-12T07:09:16.878Z,21.57
2018-07-12T07:10:16.800Z,21.57
2018-07-12T07:11:16.832Z,21.57
2018-07-12T07:12:16.542Z,21.57
2018-07-12T07:13:17.632Z,21.57
2018-07-12T07:14:16.745Z,21.57
2018-07-12T07:15:16.699Z,21.57
2018-07-12T07:16:16.686Z,21.57
2018-07-12T07:17:16.624Z,21.57
2018-07-12T07:18:16.732Z,21.57
2018-07-12T07:19:16.693Z,21.57
2018-07-12T07:20:17.036Z,21.57
2018-07-12T07:21:16.412Z,21.55
2018-07-12T07:22:16.544Z,21.56
2018-07-12T07:23:16.575Z,21.58
2018-07-12T07:24:16.818Z,21.58
2018-07-12T07:25:16.758Z,21.59
2018-07-12T07:26:17.527Z,21.6
2018-07-12T07:27:16.836Z,21.61
2018-07-12T07:28:16.596Z,21.61
2018-07-12T07:29:16.670Z,21.61
2018-07-12T07:30:16.528Z,21.62
2018-07-12T07:31:16.648Z,21.62
2018-07-12T07:32:16.850Z,21.63
2018-07-12T07:33:16.808Z,21.64
2018-07-12T07:34:16.615Z,21.65
2018-07-12T07:35:16.636Z,21.66
2018-07-12T07:36:16.839Z,21.67
2018-07-12T07:37:16.773Z,21.67
2018-07-12T07:38:16.674Z,21.68
2018-07-12T07:39:16.587Z,21.68
2018-07-12T07:40:16.491Z,21.67
2018-07-12T07:41:16.768Z,21.68
2018-07-12T07:42:16.771Z,21.67
2018-07-12T07:43:17.260Z,21.67
2018-07-12T07:44:16.802Z,21.66
2018-07-12T07:45:16.665Z,21.66
2018-07-12T07:46:16.632Z,21.66
2018-07-12T07:47:16.628Z,21.65
2018-07-12T07:48:16.594Z,21.65
2018-07-12T07:49:17.106Z,21.65
2018-07-12T07:50:16.691Z,21.65
2018-07-12T07:51:16.713Z,21.65
2018-07-12T07:52:16.751Z,21.65
2018-07-12T07:53:16.803Z,21.65
2018-07-12T07:54:16.688Z,21.65
2018-07-12T07:55:16.675Z,21.64
2018-07-12T07:56:16.548Z,21.64
2018-07-12T07:57:16.580Z,21.65
2018-07-12T07:58:16.585Z,21.64
2018-07-12T07:59:16.594Z,21.64
2018-07-12T08:00:16.719Z,21.64
2018-07-12T08:01:16.685Z,21.64
2018-07-12T08:02:16.702Z,21.64
2018-07-12T08:03:17.022Z,21.64
2018-07-12T08:04:16.700Z,21.63
2018-07-12T08:05:16.572Z,21.63
2018-07-12T08:06:16.485Z,21.63
2018-07-12T08:07:16.722Z,21.63
2018-07-12T08:08:16.721Z,21.63
2018-07-12T08:09:16.710Z,21.62
2018-07-12T08:10:16.762Z,21.62
2018-07-12T08:11:16.573Z,21.63
2018-07-12T08:12:16.763Z,21.62
2018-07-12T08:13:16.807Z,21.62
2018-07-12T08:14:16.609Z,21.62
2018-07-12T08:15:16.535Z,21.62
2018-07-12T08:16:17.276Z,21.62
2018-07-12T08:17:16.791Z,21.62
2018-07-12T08:18:16.719Z,21.62
2018-07-12T08:19:16.743Z,21.62
2018-07-12T08:20:16.571Z,21.61
2018-07-12T08:21:16.471Z,21.61
2018-07-12T08:22:16.535Z,21.61
2018-07-12T08:23:16.745Z,21.61
2018-07-12T08:24:16.564Z,21.61
2018-07-12T08:25:16.771Z,21.61
2018-07-12T08:26:16.852Z,21.61
2018-07-12T08:27:16.807Z,21.61
2018-07-12T08:28:16.909Z,21.61
2018-07-12T08:29:16.711Z,21.61
2018-07-12T08:30:16.727Z,21.61
2018-07-12T08:31:17.269Z,21.61
2018-07-12T08:32:16.529Z,21.61
2018-07-12T08:33:16.853Z,21.61
2018-07-12T08:34:16.711Z,21.61
2018-07-12T08:35:16.759Z,21.61
2018-07-12T08:36:16.893Z,21.61
2018-07-12T08:37:16.528Z,21.61
2018-07-12T08:38:16.752Z,21.6
2018-07-12T08:39:16.737Z,21.61
2018-07-12T08:40:16.592Z,21.61
2018-07-12T08:41:16.596Z,21.6
2018-07-12T08:42:16.705Z,21.6
2018-07-12T08:43:17.022Z,21.6
2018-07-12T08:44:16.771Z,21.6
2018-07-12T08:45:16.795Z,21.6
2018-07-12T08:46:17.269Z,21.6
2018-07-12T08:47:16.816Z,21.6
2018-07-12T08:48:17.258Z,21.6
2018-07-12T08:49:16.477Z,21.6
2018-07-12T08:50:16.764Z,21.6
2018-07-12T08:51:16.472Z,21.6
2018-07-12T08:52:16.445Z,21.6
2018-07-12T08:53:16.763Z,21.6
2018-07-12T08:54:16.766Z,21.6
2018-07-12T08:55:16.825Z,21.6
2018-07-12T08:56:16.608Z,21.6
2018-07-12T08:57:16.585Z,21.6
2018-07-12T08:58:16.847Z,21.6
2018-07-12T08:59:16.490Z,21.6
2018-07-12T09:00:16.652Z,21.6
2018-07-12T09:01:16.713Z,21.6
2018-07-12T09:02:16.749Z,21.6
2018-07-12T09:03:16.908Z,21.6
2018-07-12T09:04:16.822Z,21.6
2018-07-12T09:05:16.926Z,21.6
2018-07-12T09:06:16.582Z,21.6
2018-07-12T09:07:16.719Z,21.6
2018-07-12T09:08:16.802Z,21.6
2018-07-12T09:09:16.785Z,21.6
2018-07-12T09:10:16.757Z,21.6
2018-07-12T09:11:26.753Z,21.6
2018-07-12T09:12:16.667Z,21.6
2018-07-12T09:13:16.517Z,21.6
2018-07-12T09:14:16.567Z,21.6
2018-07-12T09:15:16.479Z,21.6
2018-07-12T09:16:16.553Z,21.6
2018-07-12T09:17:16.711Z,21.6
2018-07-12T09:18:16.759Z,21.6
2018-07-12T09:19:16.590Z,21.6
2018-07-12T09:20:16.510Z,21.6
2018-07-12T09:21:16.702Z,21.6
2018-07-12T09:22:16.505Z,21.6
2018-07-12T09:23:16.577Z,21.6
2018-07-12T09:24:16.672Z,21.6
2018-07-12T09:25:16.563Z,21.6
2018-07-12T09:26:16.504Z,21.6
2018-07-12T09:27:16.775Z,21.6
2018-07-12T09:28:16.603Z,21.6
2018-07-12T09:29:17.284Z,21.6
2018-07-12T09:30:16.771Z,21.6
2018-07-12T09:31:16.547Z,21.6
2018-07-12T09:32:16.774Z,21.6
2018-07-12T09:33:16.737Z,21.6
2018-07-12T09:34:16.821Z,21.6
2018-07-12T09:35:16.710Z,21.6
2018-07-12T09:36:17.341Z,21.6
2018-07-12T09:37:16.810Z,21.6
2018-07-12T09:38:16.565Z,21.6
2018-07-12T09:39:17.111Z,21.6
2018-07-12T09:40:16.676Z,21.6
2018-07-12T09:41:16.741Z,21.6
2018-07-12T09:42:16.779Z,21.6
2018-07-12T09:43:16.751Z,21.6
2018-07-12T09:44:16.539Z,21.6
2018-07-12T09:45:17.824Z,21.6
2018-07-12T09:46:16.708Z,21.6
2018-07-12T09:47:17.161Z,21.6
2018-07-12T09:48:17.693Z,21.6
2018-07-12T09:49:17.843Z,21.6
2018-07-12T09:50:17.859Z,21.6
2018-07-12T09:51:16.807Z,21.6
2018-07-12T09:52:16.801Z,21.6
2018-07-12T09:53:16.785Z,21.6
2018-07-12T09:54:17.443Z,21.6
2018-07-12T09:55:16.529Z,21.6
2018-07-12T09:56:17.533Z,21.6
2018-07-12T09:57:16.539Z,21.6
2018-07-12T09:58:16.841Z,21.6
2018-07-12T09:59:16.579Z,21.6
2018-07-12T10:00:16.619Z,21.6
2018-07-12T10:01:17.138Z,21.6
2018-07-12T10:02:16.601Z,21.6
2018-07-12T10:03:16.598Z,21.6
2018-07-12T10:04:16.813Z,21.6
2018-07-12T10:05:16.496Z,21.6
2018-07-12T10:06:16.839Z,21.6
2018-07-12T10:07:16.461Z,21.6
2018-07-12T10:08:16.605Z,21.6
2018-07-12T10:09:16.501Z,21.6
2018-07-12T10:10:16.738Z,21.6
2018-07-12T10:11:16.560Z,21.6
2018-07-12T10:12:16.796Z,21.6
2018-07-12T10:13:16.550Z,21.6
2018-07-12T10:14:16.477Z,21.6
2018-07-12T10:15:17.034Z,21.6
2018-07-12T10:16:16.598Z,21.6
2018-07-12T10:17:16.719Z,21.6
2018-07-12T10:18:16.670Z,21.6
2018-07-12T10:19:16.725Z,21.6
2018-07-12T10:20:16.935Z,21.6
2018-07-12T10:21:16.732Z,21.6
2018-07-12T10:22:16.850Z,21.6
2018-07-12T10:23:16.502Z,21.6
2018-07-12T10:24:16.744Z,21.6
2018-07-12T10:25:16.629Z,21.6
2018-07-12T10:26:17.092Z,21.6
2018-07-12T10:27:16.742Z,21.6
2018-07-12T10:28:16.745Z,21.6
2018-07-12T10:29:16.641Z,21.6
2018-07-12T10:30:16.556Z,21.6
2018-07-12T10:31:16.521Z,21.6
2018-07-12T10:32:16.451Z,21.6
2018-07-12T10:33:16.647Z,21.6
2018-07-12T10:34:16.470Z,21.6
2018-07-12T10:35:16.514Z,21.6
2018-07-12T10:36:16.624Z,21.6
2018-07-12T10:37:16.684Z,21.6
2018-07-12T10:38:16.555Z,21.6
2018-07-12T10:39:16.683Z,21.6
2018-07-12T10:40:16.651Z,21.6
2018-07-12T10:41:16.583Z,21.6
2018-07-12T10:42:16.692Z,21.6
2018-07-12T10:43:16.543Z,21.6
2018-07-12T10:44:16.596Z,21.6
2018-07-12T10:45:16.711Z,21.6
2018-07-12T10:46:16.705Z,21.6
2018-07-12T10:47:16.650Z,21.6
2018-07-12T10:48:17.025Z,21.6
2018-07-12T10:49:16.658Z,21.6
2018-07-12T10:50:16.480Z,21.6
2018-07-12T10:51:16.490Z,21.6
2018-07-12T10:52:16.560Z,21.6
2018-07-12T10:53:16.534Z,21.6
2018-07-12T10:54:16.890Z,21.6
2018-07-12T10:55:16.882Z,21.6
2018-07-12T10:56:16.531Z,21.6
2018-07-12T10:57:16.610Z,21.6
2018-07-12T10:58:16.767Z,21.6
2018-07-12T10:59:16.548Z,21.59
2018-07-12T11:00:16.693Z,21.6
2018-07-12T11:01:16.673Z,21.6
2018-07-12T11:02:16.693Z,21.6
2018-07-12T11:03:16.661Z,21.6
2018-07-12T11:04:16.856Z,21.6
2018-07-12T11:05:16.812Z,21.6
2018-07-12T11:06:16.569Z,21.6
2018-07-12T11:07:17.004Z,21.59
2018-07-12T11:08:16.747Z,21.6
2018-07-12T11:09:16.882Z,21.6
2018-07-12T11:10:16.699Z,21.6
2018-07-12T11:11:16.663Z,21.6
2018-07-12T11:12:16.758Z,21.6
2018-07-12T11:13:16.768Z,21.6
2018-07-12T11:14:16.550Z,21.6
2018-07-12T11:15:16.879Z,21.6
2018-07-12T11:16:16.631Z,21.59
2018-07-12T11:17:16.543Z,21.6
2018-07-12T11:18:17.236Z,21.6
2018-07-12T11:19:16.550Z,21.6
2018-07-12T11:20:16.814Z,21.6
2018-07-12T11:21:17.493Z,21.59
2018-07-12T11:22:16.990Z,21.6
2018-07-12T11:23:16.588Z,21.6
2018-07-12T11:24:16.486Z,21.6
2018-07-12T11:25:16.738Z,21.6
2018-07-12T11:26:16.626Z,21.6
2018-07-12T11:27:16.561Z,21.6
2018-07-12T11:28:17.121Z,21.6
2018-07-12T11:29:16.588Z,21.59
2018-07-12T11:30:16.838Z,21.6
2018-07-12T11:31:16.486Z,21.6
2018-07-12T11:32:16.866Z,21.58
2018-07-12T11:33:16.676Z,21.57
2018-07-12T11:34:16.951Z,21.55
2018-07-12T11:35:16.523Z,21.58
2018-07-12T11:36:16.913Z,21.6
2018-07-12T11:37:16.628Z,21.59
2018-07-12T11:38:16.819Z,21.6
2018-07-12T11:39:16.683Z,21.6
2018-07-12T11:40:16.981Z,21.6
2018-07-12T11:41:16.646Z,21.6
2018-07-12T11:42:16.603Z,21.59
2018-07-12T11:43:16.753Z,21.61
2018-07-12T11:44:16.682Z,21.6
2018-07-12T11:45:16.694Z,21.62
2018-07-12T11:46:16.481Z,21.62
2018-07-12T11:47:16.569Z,21.62
2018-07-12T11:48:16.552Z,21.62
2018-07-12T11:49:16.546Z,21.63
2018-07-12T11:50:16.674Z,21.63
2018-07-12T11:51:16.534Z,21.63
2018-07-12T11:52:16.519Z,21.63
2018-07-12T11:53:16.573Z,21.63
2018-07-12T11:54:16.705Z,21.63
2018-07-12T11:55:16.554Z,21.62
2018-07-12T11:56:16.651Z,21.62
2018-07-12T11:57:16.481Z,21.63
2018-07-12T11:58:16.703Z,21.65
2018-07-12T11:59:16.507Z,21.65
2018-07-12T12:00:16.652Z,21.64
2018-07-12T12:01:16.957Z,21.63
2018-07-12T12:02:16.582Z,21.63
2018-07-12T12:03:16.565Z,21.64
2018-07-12T12:04:17.098Z,21.64
2018-07-12T12:05:16.598Z,21.64
2018-07-12T12:06:16.454Z,21.64
2018-07-12T12:07:16.469Z,21.64
2018-07-12T12:08:16.819Z,21.64
2018-07-12T12:09:16.739Z,21.59
2018-07-12T12:10:16.798Z,21.6
2018-07-12T12:11:16.723Z,21.63
2018-07-12T12:12:16.669Z,21.63
2018-07-12T12:13:16.684Z,21.62
2018-07-12T12:14:16.783Z,21.63
2018-07-12T12:15:16.471Z,21.63
2018-07-12T12:16:16.606Z,21.63
2018-07-12T12:17:16.542Z,21.63
2018-07-12T12:18:16.557Z,21.64
2018-07-12T12:19:16.777Z,21.63
2018-07-12T12:20:16.544Z,21.65
2018-07-12T12:21:16.618Z,21.65
2018-07-12T12:22:16.814Z,21.66
2018-07-12T12:23:16.675Z,21.65
2018-07-12T12:24:16.495Z,21.65
2018-07-12T12:25:16.848Z,21.65
2018-07-12T12:26:16.445Z,21.65
2018-07-12T12:27:16.467Z,21.65
2018-07-12T12:28:16.972Z,21.65
2018-07-12T12:29:16.585Z,21.65
2018-07-12T12:30:16.498Z,21.65
2018-07-12T12:31:16.542Z,21.65
2018-07-12T12:32:16.631Z,21.65
2018-07-12T12:33:16.384Z,21.65
2018-07-12T12:34:16.631Z,21.65
2018-07-12T12:35:16.737Z,21.65
2018-07-12T12:36:16.834Z,21.65
2018-07-12T12:37:16.823Z,21.65
2018-07-12T12:38:16.509Z,21.65
2018-07-12T12:39:16.809Z,21.65
2018-07-12T12:40:16.752Z,21.65
2018-07-12T12:41:16.629Z,21.65
2018-07-12T12:42:16.513Z,21.65
2018-07-12T12:43:16.675Z,21.65
2018-07-12T12:44:16.591Z,21.65
2018-07-12T12:45:16.579Z,21.65
2018-07-12T12:46:16.487Z,21.65
2018-07-12T12:47:16.648Z,21.65
2018-07-12T12:48:16.760Z,21.65
2018-07-12T12:49:16.553Z,21.64
2018-07-12T12:50:16.496Z,21.65
2018-07-12T12:51:16.495Z,21.65
2018-07-12T12:52:16.422Z,21.65
2018-07-12T12:53:16.532Z,21.64
2018-07-12T12:54:16.734Z,21.65
2018-07-12T12:55:16.467Z,21.64
2018-07-12T12:56:16.573Z,21.64
2018-07-12T12:57:16.562Z,21.64
2018-07-12T12:58:16.635Z,21.64
2018-07-12T12:59:16.575Z,21.64
2018-07-12T13:00:16.485Z,21.64